createdAt,value
2022-09-23T00:01:05.268Z,4.40
2022-09-23T00:03:33.347Z,4.40
2022-09-23T00:06:02.332Z,4.30
2022-09-23T00:08:33.616Z,4.30
2022-09-23T00:11:09.957Z,4.20
2022-09-23T00:13:38.644Z,4.20
2022-09-23T00:16:11.767Z,4.10
2022-09-23T00:18:38.874Z,4.10
2022-09-23T00:21:09.999Z,4.10
2022-09-23T00:23:40.570Z,4.10
2022-09-23T00:26:09.496Z,4.10
2022-09-23T00:28:36.639Z,4.00
2022-09-23T00:31:05.011Z,4.00
2022-09-23T00:33:31.987Z,3.90
2022-09-23T00:36:00.446Z,3.90
2022-09-23T00:38:27.555Z,3.90
2022-09-23T00:40:54.289Z,3.80
2022-09-23T00:43:36.655Z,3.80
2022-09-23T00:46:03.769Z,3.80
2022-09-23T00:48:30.973Z,3.80
2022-09-23T00:50:57.931Z,3.80
2022-09-23T00:53:26.756Z,3.80
2022-09-23T00:56:02.983Z,3.80
2022-09-23T00:58:33.115Z,3.80
2022-09-23T01:01:01.435Z,3.80
2022-09-23T01:03:28.372Z,3.80
2022-09-23T01:05:55.887Z,3.80
2022-09-23T01:08:24.524Z,3.80
2022-09-23T01:11:06.417Z,3.80
2022-09-23T01:13:57.345Z,3.80
2022-09-23T01:16:48.907Z,3.80
2022-09-23T01:19:27.925Z,3.70
2022-09-23T01:22:09.156Z,3.80
2022-09-23T01:24:53.822Z,3.80
2022-09-23T01:27:39.065Z,3.80
2022-09-23T01:30:09.116Z,3.70
2022-09-23T01:32:52.865Z,3.80
2022-09-23T01:35:35.315Z,3.70
2022-09-23T01:38:25.876Z,3.70
2022-09-23T01:41:12.485Z,3.70
2022-09-23T01:43:58.088Z,3.70
2022-09-23T01:46:30.788Z,3.70
2022-09-23T01:49:18.971Z,3.70
2022-09-23T01:51:56.491Z,3.70
2022-09-23T01:54:31.570Z,3.70
2022-09-23T01:57:04.407Z,3.70
2022-09-23T01:59:36.421Z,3.60
2022-09-23T02:02:22.010Z,3.50
2022-09-23T02:05:08.036Z,3.50
2022-09-23T02:08:11.497Z,3.40
2022-09-23T02:10:47.090Z,3.40
2022-09-23T02:13:20.637Z,3.30
2022-09-23T02:15:52.510Z,3.30
2022-09-23T02:18:47.525Z,3.30
2022-09-23T02:21:16.664Z,3.20
2022-09-23T02:23:58.410Z,3.20
2022-09-23T02:26:51.526Z,3.20
2022-09-23T02:29:29.462Z,3.30
2022-09-23T02:32:24.145Z,3.30
2022-09-23T02:35:09.108Z,3.20
2022-09-23T02:38:09.864Z,3.20
2022-09-23T02:40:58.746Z,3.20
2022-09-23T02:43:35.534Z,3.20
2022-09-23T02:46:06.395Z,3.10
2022-09-23T02:48:44.487Z,3.10
2022-09-23T02:51:11.216Z,3.10
2022-09-23T02:53:38.867Z,3.10
2022-09-23T02:56:21.901Z,3.00
2022-09-23T02:58:51.881Z,3.00
2022-09-23T03:01:21.993Z,2.90
2022-09-23T03:04:07.325Z,2.90
2022-09-23T03:06:44.319Z,2.90
2022-09-23T03:09:15.364Z,2.80
2022-09-23T03:11:45.857Z,2.80
2022-09-23T03:14:22.634Z,2.80
2022-09-23T03:17:07.153Z,2.80
2022-09-23T03:19:47.242Z,2.80
2022-09-23T03:22:42.549Z,2.80
2022-09-23T03:25:19.695Z,2.80
2022-09-23T03:27:46.432Z,2.80
2022-09-23T03:30:14.085Z,2.70
2022-09-23T03:32:45.301Z,2.70
2022-09-23T03:35:12.938Z,2.60
2022-09-23T03:37:49.415Z,2.60
2022-09-23T03:40:22.124Z,2.60
2022-09-23T03:42:49.127Z,2.60
2022-09-23T03:45:20.369Z,2.60
2022-09-23T03:47:47.823Z,2.60
2022-09-23T03:50:17.262Z,2.60
2022-09-23T03:52:44.875Z,2.60
2022-09-23T03:55:11.896Z,2.60
2022-09-23T03:57:38.876Z,2.60
2022-09-23T04:00:07.437Z,2.70
2022-09-23T04:02:34.462Z,2.70
2022-09-23T04:05:01.361Z,2.70
2022-09-23T04:07:28.268Z,2.70
2022-09-23T04:09:55.857Z,2.70
2022-09-23T04:12:22.988Z,2.70
2022-09-23T04:14:49.781Z,2.70
2022-09-23T04:17:16.796Z,2.60
2022-09-23T04:19:45.051Z,2.60
2022-09-23T04:22:11.990Z,2.60
2022-09-23T04:24:38.776Z,2.50
2022-09-23T04:27:05.991Z,2.50
2022-09-23T04:29:32.791Z,2.50
2022-09-23T04:31:59.645Z,2.40
2022-09-23T04:34:26.528Z,2.30
2022-09-23T04:36:53.461Z,2.30
2022-09-23T04:39:20.227Z,2.30
2022-09-23T04:41:47.474Z,2.20
2022-09-23T04:44:15.036Z,2.20
2022-09-23T04:46:43.735Z,2.10
2022-09-23T04:49:10.785Z,2.10
2022-09-23T04:51:37.631Z,2.10
2022-09-23T04:54:04.603Z,2.10
2022-09-23T04:56:34.367Z,2.00
2022-09-23T04:59:04.218Z,2.00
2022-09-23T05:01:34.433Z,2.00
2022-09-23T05:04:05.303Z,2.00
2022-09-23T05:06:36.376Z,1.90
2022-09-23T05:09:06.216Z,1.90
2022-09-23T05:11:33.639Z,1.90
2022-09-23T05:14:00.690Z,1.90
2022-09-23T05:16:27.775Z,1.90
2022-09-23T05:18:54.911Z,2.00
2022-09-23T05:21:23.636Z,2.00
2022-09-23T05:23:56.646Z,2.00
2022-09-23T05:26:25.581Z,2.00
2022-09-23T05:28:53.899Z,2.00
2022-09-23T05:31:22.705Z,2.10
2022-09-23T05:33:55.674Z,2.10
2022-09-23T05:36:23.596Z,2.20
2022-09-23T05:38:51.362Z,2.20
2022-09-23T05:41:19.832Z,2.20
2022-09-23T05:43:47.449Z,2.30
2022-09-23T05:46:19.636Z,2.30
2022-09-23T05:48:47.282Z,2.30
2022-09-23T05:51:16.259Z,2.40
2022-09-23T05:53:46.220Z,2.40
2022-09-23T05:56:17.901Z,2.50
2022-09-23T05:58:45.277Z,2.50
2022-09-23T06:01:25.085Z,2.60
2022-09-23T06:03:52.971Z,2.60
2022-09-23T06:06:26.106Z,2.60
2022-09-23T06:08:52.871Z,2.70
2022-09-23T06:11:21.602Z,2.80
2022-09-23T06:13:49.408Z,2.80
2022-09-23T06:16:16.719Z,2.90
2022-09-23T06:18:45.710Z,3.00
2022-09-23T06:21:15.030Z,3.10
2022-09-23T06:23:42.558Z,3.20
2022-09-23T06:26:11.867Z,3.20
2022-09-23T06:28:40.623Z,3.30
2022-09-23T06:31:14.024Z,3.30
2022-09-23T06:33:42.694Z,3.40
2022-09-23T06:36:09.760Z,3.40
2022-09-23T06:38:40.095Z,3.40
2022-09-23T06:41:07.218Z,3.40
2022-09-23T06:43:34.034Z,3.50
2022-09-23T06:46:04.014Z,3.50
2022-09-23T06:48:35.451Z,3.50
2022-09-23T06:51:04.986Z,3.50
2022-09-23T06:53:32.300Z,3.60
2022-09-23T06:56:07.332Z,3.70
2022-09-23T06:58:36.000Z,3.70
2022-09-23T07:01:10.751Z,3.80
2022-09-23T07:03:38.863Z,3.90
2022-09-23T07:06:06.842Z,4.00
2022-09-23T07:08:35.053Z,4.10
2022-09-23T07:11:04.832Z,4.20
2022-09-23T07:13:33.472Z,4.30
2022-09-23T07:16:02.067Z,4.40
2022-09-23T07:18:36.656Z,4.40
2022-09-23T07:21:08.437Z,4.50
2022-09-23T07:23:35.259Z,4.60
2022-09-23T07:26:02.082Z,4.70
2022-09-23T07:28:29.219Z,4.80
2022-09-23T07:31:00.397Z,4.90
2022-09-23T07:33:32.963Z,5.00
2022-09-23T07:36:08.306Z,5.10
2022-09-23T07:38:37.952Z,5.20
2022-09-23T07:41:09.551Z,5.30
2022-09-23T07:43:37.173Z,5.40
2022-09-23T07:46:14.412Z,5.60
2022-09-23T07:48:41.321Z,5.70
2022-09-23T07:51:18.732Z,5.80
2022-09-23T07:53:48.517Z,5.80
2022-09-23T07:56:16.409Z,5.90
2022-09-23T07:58:43.261Z,6.00
2022-09-23T08:01:12.227Z,6.00
2022-09-23T08:03:39.686Z,6.10
2022-09-23T08:06:08.464Z,6.20
2022-09-23T08:08:36.263Z,6.30
2022-09-23T08:11:05.166Z,6.50
2022-09-23T08:13:32.653Z,6.60
2022-09-23T08:15:59.973Z,6.80
2022-09-23T08:18:27.049Z,6.90
2022-09-23T08:20:53.951Z,7.00
2022-09-23T08:23:21.098Z,7.00
2022-09-23T08:25:48.238Z,7.20
2022-09-23T08:28:19.208Z,7.30
2022-09-23T08:30:48.932Z,7.40
2022-09-23T08:33:20.981Z,7.50
2022-09-23T08:35:49.770Z,7.60
2022-09-23T08:38:16.574Z,7.70
2022-09-23T08:40:46.352Z,7.80
2022-09-23T08:43:34.231Z,8.00
2022-09-23T08:46:04.634Z,8.10
2022-09-23T08:48:36.845Z,8.20
2022-09-23T08:51:08.080Z,8.30
2022-09-23T08:53:36.919Z,8.40
2022-09-23T08:56:19.293Z,8.60
2022-09-23T08:59:01.129Z,8.80
2022-09-23T09:01:57.941Z,9.00
2022-09-23T09:04:32.987Z,9.00
2022-09-23T09:07:38.682Z,9.20
2022-09-23T09:10:06.274Z,9.40
2022-09-23T09:12:42.134Z,9.60
2022-09-23T09:15:14.976Z,9.70
2022-09-23T09:17:48.727Z,9.80
2022-09-23T09:20:17.249Z,10.00
2022-09-23T09:22:54.448Z,10.20
2022-09-23T09:25:44.761Z,10.40
2022-09-23T09:28:23.243Z,10.50
2022-09-23T09:31:05.731Z,10.80
2022-09-23T09:33:52.726Z,11.00
2022-09-23T09:36:23.803Z,11.20
2022-09-23T09:38:51.292Z,11.40
2022-09-23T09:41:21.446Z,11.70
2022-09-23T09:43:57.748Z,11.80
2022-09-23T09:46:45.218Z,12.00
2022-09-23T09:49:28.527Z,12.20
2022-09-23T09:52:26.346Z,12.50
2022-09-23T09:54:53.442Z,12.70
2022-09-23T09:57:33.525Z,12.80
2022-09-23T10:00:21.508Z,13.00
2022-09-23T10:03:09.179Z,13.10
2022-09-23T10:05:45.100Z,13.20
2022-09-23T10:08:36.407Z,13.30
2022-09-23T10:11:17.027Z,13.50
2022-09-23T10:14:05.759Z,13.70
2022-09-23T10:16:34.478Z,13.80
2022-09-23T10:19:03.382Z,13.80
2022-09-23T10:21:36.611Z,13.90
2022-09-23T10:24:06.430Z,14.00
2022-09-23T10:26:41.183Z,14.20
2022-09-23T10:29:37.039Z,14.20
2022-09-23T10:32:19.813Z,14.40
2022-09-23T10:34:51.874Z,14.60
2022-09-23T10:37:27.765Z,14.70
2022-09-23T10:40:13.203Z,14.80
2022-09-23T10:43:01.601Z,14.80
2022-09-23T10:45:52.436Z,14.90
2022-09-23T10:48:35.892Z,15.10
2022-09-23T10:51:14.404Z,15.20
2022-09-23T10:54:10.650Z,15.40
2022-09-23T10:56:42.963Z,15.40
2022-09-23T10:59:30.622Z,15.60
2022-09-23T11:02:31.278Z,15.70
2022-09-23T11:05:19.654Z,15.90
2022-09-23T11:07:56.932Z,15.90
2022-09-23T11:10:50.312Z,16.10
2022-09-23T11:13:54.513Z,16.20
2022-09-23T11:17:00.952Z,16.40
2022-09-23T11:19:49.570Z,16.60
2022-09-23T11:22:37.510Z,16.70
2022-09-23T11:25:14.113Z,16.70
2022-09-23T11:28:08.895Z,16.90
2022-09-23T11:31:05.610Z,16.90
2022-09-23T11:34:02.642Z,17.00
2022-09-23T11:36:44.535Z,17.20
2022-09-23T11:39:20.245Z,17.30
2022-09-23T11:41:49.968Z,17.40
2022-09-23T11:44:35.644Z,17.50
2022-09-23T11:47:08.107Z,17.60
2022-09-23T11:49:40.203Z,17.60
2022-09-23T11:52:22.157Z,17.70
2022-09-23T11:55:21.565Z,17.70
2022-09-23T11:57:53.889Z,17.90
2022-09-23T12:00:34.182Z,17.90
2022-09-23T12:03:23.227Z,18.10
2022-09-23T12:06:09.212Z,18.20
2022-09-23T12:08:37.287Z,18.30
2022-09-23T12:11:25.445Z,18.30
2022-09-23T12:14:08.648Z,18.50
2022-09-23T12:16:58.177Z,18.40
2022-09-23T12:19:55.568Z,18.40
2022-09-23T12:22:34.351Z,18.30
2022-09-23T12:25:33.560Z,18.30
2022-09-23T12:28:10.439Z,18.30
2022-09-23T12:30:39.656Z,18.50
2022-09-23T12:33:16.426Z,18.50
2022-09-23T12:35:45.845Z,18.50
2022-09-23T12:38:25.341Z,18.60
2022-09-23T12:40:54.997Z,18.80
2022-09-23T12:43:33.045Z,18.80
2022-09-23T12:46:27.263Z,18.80
2022-09-23T12:48:57.351Z,19.00
2022-09-23T12:51:25.777Z,19.10
2022-09-23T12:53:57.296Z,19.20
2022-09-23T12:56:26.825Z,19.00
2022-09-23T12:58:53.524Z,19.10
2022-09-23T13:01:23.074Z,19.00
2022-09-23T13:04:13.561Z,19.10
2022-09-23T13:07:08.467Z,19.10
2022-09-23T13:09:42.659Z,19.20
2022-09-23T13:12:24.494Z,19.20
2022-09-23T13:14:52.652Z,19.20
2022-09-23T13:17:36.118Z,19.20
2022-09-23T13:20:20.765Z,19.20
2022-09-23T13:22:53.262Z,19.20
2022-09-23T13:25:24.504Z,19.30
2022-09-23T13:27:59.036Z,19.30
2022-09-23T13:30:26.991Z,19.50
2022-09-23T13:33:04.500Z,19.60
2022-09-23T13:35:37.091Z,19.50
2022-09-23T13:38:26.194Z,19.60
2022-09-23T13:40:57.783Z,19.70
2022-09-23T13:43:52.275Z,19.70
2022-09-23T13:46:25.290Z,19.60
2022-09-23T13:48:56.884Z,19.60
2022-09-23T13:51:32.617Z,19.60
2022-09-23T13:54:01.623Z,19.70
2022-09-23T13:56:31.061Z,19.40
2022-09-23T13:59:25.838Z,19.30
2022-09-23T14:02:06.079Z,19.30
2022-09-23T14:04:32.854Z,19.40
2022-09-23T14:06:59.823Z,19.60
2022-09-23T14:09:30.372Z,19.60
2022-09-23T14:11:59.405Z,19.60
2022-09-23T14:14:27.882Z,19.70
2022-09-23T14:16:56.102Z,19.70
2022-09-23T14:19:25.527Z,19.50
2022-09-23T14:21:54.089Z,19.40
2022-09-23T14:24:29.014Z,19.30
2022-09-23T14:27:15.687Z,19.30
2022-09-23T14:29:47.689Z,19.30
2022-09-23T14:32:24.791Z,19.40
2022-09-23T14:34:51.517Z,19.40
2022-09-23T14:38:09.068Z,19.40
2022-09-23T14:40:49.270Z,19.30
2022-09-23T14:43:27.997Z,19.30
2022-09-23T14:45:57.480Z,19.30
2022-09-23T14:48:26.153Z,19.10
2022-09-23T14:50:58.579Z,19.00
2022-09-23T14:53:46.431Z,19.00
2022-09-23T14:56:17.711Z,18.90
2022-09-23T14:58:53.163Z,18.60
2022-09-23T15:01:35.167Z,18.60
2022-09-23T15:04:02.004Z,18.50
2022-09-23T15:06:28.922Z,18.40
2022-09-23T15:08:56.263Z,18.40
2022-09-23T15:11:23.160Z,18.50
2022-09-23T15:13:52.815Z,18.50
2022-09-23T15:16:27.939Z,18.60
2022-09-23T15:18:57.710Z,18.60
2022-09-23T15:21:25.893Z,18.60
2022-09-23T15:23:58.711Z,18.50
2022-09-23T15:26:48.137Z,18.50
2022-09-23T15:29:15.026Z,18.50
2022-09-23T15:31:41.926Z,18.40
2022-09-23T15:34:10.895Z,18.30
2022-09-23T15:36:38.645Z,18.20
2022-09-23T15:39:08.720Z,18.10
2022-09-23T15:41:35.543Z,17.90
2022-09-23T15:44:11.732Z,17.70
2022-09-23T15:46:40.530Z,17.50
2022-09-23T15:49:27.774Z,17.40
2022-09-23T15:51:58.328Z,17.20
2022-09-23T15:54:25.224Z,17.10
2022-09-23T15:56:52.044Z,17.00
2022-09-23T15:59:19.254Z,16.90
2022-09-23T16:01:46.655Z,16.80
2022-09-23T16:04:16.656Z,16.70
2022-09-23T16:06:48.390Z,16.60
2022-09-23T16:09:18.732Z,16.60
2022-09-23T16:11:47.965Z,16.50
2022-09-23T16:14:17.071Z,16.30
2022-09-23T16:16:45.411Z,16.30
2022-09-23T16:19:12.401Z,16.20
2022-09-23T16:21:40.990Z,16.20
2022-09-23T16:24:18.494Z,16.10
2022-09-23T16:26:47.182Z,16.10
2022-09-23T16:29:14.079Z,16.10
2022-09-23T16:31:41.066Z,15.90
2022-09-23T16:34:08.009Z,15.80
2022-09-23T16:36:40.648Z,15.70
2022-09-23T16:39:12.531Z,15.70
2022-09-23T16:41:39.262Z,15.70
2022-09-23T16:44:09.359Z,15.60
2022-09-23T16:46:36.464Z,15.50
2022-09-23T16:49:03.409Z,15.50
2022-09-23T16:51:38.066Z,15.40
2022-09-23T16:54:11.395Z,15.30
2022-09-23T16:56:43.941Z,15.30
2022-09-23T16:59:12.768Z,15.20
2022-09-23T17:01:58.304Z,15.00
2022-09-23T17:04:25.209Z,14.90
2022-09-23T17:06:52.900Z,14.80
2022-09-23T17:09:21.972Z,14.70
2022-09-23T17:11:58.758Z,14.60
2022-09-23T17:14:25.737Z,14.50
2022-09-23T17:16:52.628Z,14.40
2022-09-23T17:19:19.404Z,14.30
2022-09-23T17:21:46.559Z,14.20
2022-09-23T17:24:13.498Z,14.10
2022-09-23T17:26:40.270Z,14.00
2022-09-23T17:29:07.696Z,13.90
2022-09-23T17:31:35.103Z,13.80
2022-09-23T17:34:02.004Z,13.80
2022-09-23T17:36:28.760Z,13.70
2022-09-23T17:38:56.165Z,13.60
2022-09-23T17:41:25.943Z,13.50
2022-09-23T17:44:00.494Z,13.50
2022-09-23T17:46:28.896Z,13.40
2022-09-23T17:48:56.359Z,13.30
2022-09-23T17:51:24.349Z,13.20
2022-09-23T17:53:51.378Z,13.20
2022-09-23T17:56:18.241Z,13.10
2022-09-23T17:58:46.520Z,13.10
2022-09-23T18:01:19.456Z,13.00
2022-09-23T18:03:47.427Z,12.90
2022-09-23T18:06:19.930Z,12.80
2022-09-23T18:08:49.617Z,12.80
2022-09-23T18:11:30.161Z,12.70
2022-09-23T18:14:01.764Z,12.70
2022-09-23T18:16:30.954Z,12.60
2022-09-23T18:19:00.414Z,12.50
2022-09-23T18:21:33.071Z,12.50
2022-09-23T18:26:49.691Z,12.30
2022-09-23T18:29:17.254Z,12.30
2022-09-23T18:31:45.183Z,12.20
2022-09-23T18:34:18.588Z,12.20
2022-09-23T18:36:45.465Z,12.10
2022-09-23T18:39:12.654Z,12.10
2022-09-23T18:41:39.423Z,12.00
2022-09-23T18:44:06.337Z,12.00
2022-09-23T18:46:33.390Z,11.90
2022-09-23T18:49:18.656Z,11.90
2022-09-23T18:51:51.092Z,11.80
2022-09-23T18:54:19.361Z,11.80
2022-09-23T18:56:46.999Z,11.70
2022-09-23T18:59:25.307Z,11.70
2022-09-23T19:01:55.008Z,11.70
2022-09-23T19:04:23.505Z,11.60
2022-09-23T19:06:50.675Z,11.60
2022-09-23T19:09:18.463Z,11.60
2022-09-23T19:11:45.641Z,11.50
2022-09-23T19:14:13.112Z,11.50
2022-09-23T19:16:41.886Z,11.40
2022-09-23T19:19:09.274Z,11.40
2022-09-23T19:21:37.159Z,11.30
2022-09-23T19:24:07.722Z,11.30
2022-09-23T19:26:40.779Z,11.20
2022-09-23T19:29:12.931Z,11.10
2022-09-23T19:31:41.279Z,11.10
2022-09-23T19:34:16.704Z,11.00
2022-09-23T19:36:48.388Z,11.00
2022-09-23T19:39:22.699Z,10.90
2022-09-23T19:41:50.800Z,10.90
2022-09-23T19:44:17.907Z,10.90
2022-09-23T19:46:46.261Z,10.80
2022-09-23T19:49:13.364Z,10.80
2022-09-23T19:51:40.674Z,10.80
2022-09-23T19:54:08.211Z,10.70
2022-09-23T19:56:35.767Z,10.70
2022-09-23T19:59:04.590Z,10.70
2022-09-23T20:01:32.049Z,10.60
2022-09-23T20:04:08.584Z,10.60
2022-09-23T20:06:40.805Z,10.60
2022-09-23T20:09:07.534Z,10.50
2022-09-23T20:11:34.571Z,10.50
2022-09-23T20:14:03.973Z,10.50
2022-09-23T20:16:33.293Z,10.40
2022-09-23T20:19:01.412Z,10.40
2022-09-23T20:21:29.570Z,10.40
2022-09-23T20:23:57.372Z,10.30
2022-09-23T20:26:42.609Z,10.20
2022-09-23T20:29:10.795Z,10.20
2022-09-23T20:31:41.313Z,10.10
2022-09-23T20:34:10.367Z,10.10
2022-09-23T20:36:37.647Z,10.00
2022-09-23T20:39:09.579Z,10.00
2022-09-23T20:41:38.354Z,10.00
2022-09-23T20:44:12.806Z,10.00
2022-09-23T20:46:44.132Z,10.00
2022-09-23T20:49:15.229Z,10.00
2022-09-23T20:51:41.998Z,10.00
2022-09-23T20:54:08.923Z,10.00
2022-09-23T20:56:35.756Z,10.00
2022-09-23T20:59:04.163Z,9.90
2022-09-23T21:01:36.512Z,9.80
2022-09-23T21:04:05.707Z,9.80
2022-09-23T21:06:36.925Z,9.80
2022-09-23T21:09:05.293Z,9.80
2022-09-23T21:11:32.433Z,9.80
2022-09-23T21:14:01.156Z,9.80
2022-09-23T21:16:29.046Z,9.70
2022-09-23T21:18:56.066Z,9.70
2022-09-23T21:21:22.874Z,9.70
2022-09-23T21:23:50.548Z,9.70
2022-09-23T21:26:23.159Z,9.70
2022-09-23T21:28:51.768Z,9.70
2022-09-23T21:31:25.889Z,9.70
2022-09-23T21:33:52.946Z,9.70
2022-09-23T21:36:19.755Z,9.70
2022-09-23T21:38:46.570Z,9.70
2022-09-23T21:41:13.721Z,9.70
2022-09-23T21:43:40.869Z,9.70
2022-09-23T21:46:11.311Z,9.70
2022-09-23T21:48:41.367Z,9.70
2022-09-23T21:51:29.550Z,9.70
2022-09-23T21:53:57.895Z,9.70
2022-09-23T21:56:27.849Z,9.70
2022-09-23T21:58:56.021Z,9.70
2022-09-23T22:01:25.884Z,9.70
2022-09-23T22:03:58.147Z,9.60
2022-09-23T22:06:27.391Z,9.60
2022-09-23T22:08:59.186Z,9.70
2022-09-23T22:11:46.808Z,9.60
2022-09-23T22:14:14.927Z,9.60
2022-09-23T22:16:42.448Z,9.60
2022-09-23T22:19:10.609Z,9.60
2022-09-23T22:21:38.956Z,9.60
2022-09-23T22:24:09.414Z,9.50
2022-09-23T22:26:38.840Z,9.50
2022-09-23T22:29:25.619Z,9.50
2022-09-23T22:32:11.321Z,9.50
2022-09-23T22:34:49.660Z,9.50
2022-09-23T22:37:20.434Z,9.50
2022-09-23T22:39:47.533Z,9.40
2022-09-23T22:42:14.509Z,9.40
2022-09-23T22:44:41.332Z,9.50
2022-09-23T22:47:10.562Z,9.50
2022-09-23T22:49:37.334Z,9.50
2022-09-23T22:52:07.879Z,9.50
2022-09-23T22:54:35.593Z,9.50
2022-09-23T22:57:06.881Z,9.50
2022-09-23T22:59:34.302Z,9.50
2022-09-23T23:02:03.008Z,9.40
2022-09-23T23:04:30.982Z,9.40
2022-09-23T23:06:58.721Z,9.50
2022-09-23T23:09:25.576Z,9.40
2022-09-23T23:11:52.303Z,9.40
2022-09-23T23:14:19.376Z,9.40
2022-09-23T23:16:46.743Z,9.30
2022-09-23T23:19:17.107Z,9.30
2022-09-23T23:21:45.513Z,9.30
2022-09-23T23:24:30.758Z,9.30
2022-09-23T23:26:57.513Z,9.30
2022-09-23T23:29:24.269Z,9.30
2022-09-23T23:31:51.422Z,9.30
2022-09-23T23:34:20.710Z,9.30
2022-09-23T23:36:53.454Z,9.30
2022-09-23T23:39:23.550Z,9.30
2022-09-23T23:41:55.361Z,9.30
2022-09-23T23:44:23.834Z,9.30
2022-09-23T23:46:50.792Z,9.30
2022-09-23T23:49:17.564Z,9.30
2022-09-23T23:51:44.500Z,9.40
2022-09-23T23:54:11.926Z,9.40
2022-09-23T23:56:41.385Z,9.30
2022-09-23T23:59:08.181Z,9.40
